KSLC METAR and TAF | Updated Today

KSLC METAR

Salt Lake City International Airport

Observation time: 30 min. ago

KSLC 301654Z 00000KT 10SM BKN200 07/M01 A3041 RMK AO2 SLP297 T00721006

Need help? Read our tutorial on how to read METARs or read the parsed version below.

Salt Lake City International Airport (KSLC) METAR

  • Weather conditions on Tue, 30 Nov 2021 16:54:00 +0000 (30 min. ago):
  • Present conditions: Dry
  • Clouds: Broken sky at 6096 meters
  • Visibility: 16093 meters
  • Wind: Calm
  • Temperature: 7 celsius
  • Dew point: -1 celsius
  • Pressure: 30.41 inHg
  • Remarks: AO2 SLP297 T00721006


Useful to know...

KSLC TAF

Salt Lake City International Airport

KSLC 301532Z 3016/0118 15005KT 6SM BR SCT200 FM301900 32006KT P6SM FEW200 FM010300 15005KT 5SM BR SCT200
Observation time: 1:52 hr. ago
Need help? Read our tutorial on how to read TAFs or read the parsed version below.

Parsed version of TAF for Salt Lake City International Airport (KSLC)

  • From 30 November at 16:00 UTC, to day 01 of the month at 18:00 UTC
  • Clouds: Scattered at 6096 meters
  • Visibility: 9656 meters
  • Wind: 150 degrees at 5
  • Other: Mist
  • From day 30 of the month at 19:00 UTC
  • Clouds: A few at 6096 meters
  • Wind: 320 degrees at 6
  • From day 1 of the month at 03:00 UTC
  • Clouds: Scattered at 6096 meters
  • Visibility: 8047 meters
  • Wind: 150 degrees at 5
  • Other: Mist